createdAt,value
2022-08-17T00:00:43.193Z,6.53
2022-08-17T00:05:57.508Z,4.72
2022-08-17T00:10:59.977Z,5.32
2022-08-17T00:16:06.145Z,6.72
2022-08-17T00:21:10.355Z,4.45
2022-08-17T00:26:13.461Z,4.65
2022-08-17T00:31:15.695Z,6.20
2022-08-17T00:36:17.021Z,6.93
2022-08-17T00:41:21.607Z,6.07
2022-08-17T00:46:26.363Z,5.65
2022-08-17T00:51:54.473Z,6.40
2022-08-17T00:57:06.210Z,7.30
2022-08-17T01:02:11.686Z,5.30
2022-08-17T01:07:13.516Z,8.50
2022-08-17T01:12:14.698Z,6.85
2022-08-17T01:17:15.841Z,5.10
2022-08-17T01:22:21.986Z,5.50
2022-08-17T01:27:23.642Z,8.05
2022-08-17T01:32:27.649Z,7.68
2022-08-17T01:37:35.679Z,6.65
2022-08-17T01:43:00.076Z,5.60
2022-08-17T01:48:01.025Z,8.70
2022-08-17T01:53:06.356Z,5.78
2022-08-17T01:58:08.993Z,6.32
2022-08-17T02:03:10.166Z,7.82
2022-08-17T02:08:19.772Z,7.07
2022-08-17T02:13:21.284Z,10.50
2022-08-17T02:18:22.333Z,7.20
2022-08-17T02:23:26.615Z,6.32
2022-08-17T02:28:28.584Z,5.57
2022-08-17T02:33:41.538Z,5.93
2022-08-17T02:38:44.319Z,5.82
2022-08-17T02:43:45.143Z,4.28
2022-08-17T02:48:46.289Z,5.68
2022-08-17T02:53:47.153Z,5.30
2022-08-17T02:58:48.449Z,4.20
2022-08-17T03:03:49.423Z,5.97
2022-08-17T03:08:50.414Z,5.20
2022-08-17T03:13:51.273Z,4.37
2022-08-17T03:18:53.940Z,6.65
2022-08-17T03:23:54.847Z,6.28
2022-08-17T03:28:55.741Z,5.75
2022-08-17T03:33:56.788Z,3.78
2022-08-17T03:38:57.664Z,8.20
2022-08-17T03:43:58.547Z,6.70
2022-08-17T03:49:17.769Z,7.20
2022-08-17T03:54:37.292Z,7.00
2022-08-17T03:59:42.457Z,7.12
2022-08-17T04:04:51.414Z,5.97
2022-08-17T04:09:52.726Z,5.97
2022-08-17T04:14:54.952Z,5.55
2022-08-17T04:19:56.511Z,4.87
2022-08-17T04:24:57.961Z,4.22
2022-08-17T04:30:00.178Z,5.43
2022-08-17T04:35:01.516Z,4.75
2022-08-17T04:40:21.853Z,8.20
2022-08-17T04:45:22.834Z,4.97
2022-08-17T04:50:23.788Z,7.03
2022-08-17T04:55:24.767Z,4.43
2022-08-17T05:00:26.026Z,5.75
2022-08-17T05:05:32.976Z,6.78
2022-08-17T05:10:36.652Z,10.23
2022-08-17T05:15:44.914Z,8.07
2022-08-17T05:20:46.320Z,7.35
2022-08-17T05:25:50.429Z,7.87
2022-08-17T05:30:51.423Z,6.95
2022-08-17T05:35:55.152Z,6.47
2022-08-17T05:40:57.196Z,8.70
2022-08-17T05:46:24.341Z,6.73
2022-08-17T05:55:03.316Z,7.03
2022-08-17T06:00:49.758Z,15.07
2022-08-17T06:06:49.917Z,16.85
2022-08-17T06:15:03.057Z,22.70
2022-08-17T06:20:09.794Z,19.12
2022-08-17T06:25:22.796Z,8.00
2022-08-17T06:30:27.695Z,11.77
2022-08-17T06:35:46.188Z,13.88
2022-08-17T06:43:33.529Z,43.13
2022-08-17T06:49:00.102Z,9.48
2022-08-17T06:54:10.357Z,8.35
2022-08-17T06:59:17.626Z,9.35
2022-08-17T07:04:25.632Z,6.12
2022-08-17T07:09:35.095Z,5.65
2022-08-17T07:16:03.890Z,11.05
2022-08-17T07:21:17.477Z,9.85
2022-08-17T07:26:22.484Z,8.07
2022-08-17T07:31:25.296Z,6.30
2022-08-17T07:41:53.454Z,7.95
2022-08-17T07:47:18.392Z,8.48
2022-08-17T07:52:48.292Z,7.25
2022-08-17T07:57:57.995Z,12.25
2022-08-17T08:03:28.842Z,6.12
2022-08-17T08:08:36.776Z,13.18
2022-08-17T08:13:42.928Z,6.15
2022-08-17T08:18:54.473Z,9.68
2022-08-17T08:25:01.726Z,14.50
2022-08-17T08:30:09.837Z,9.75
2022-08-17T08:35:53.634Z,9.45
2022-08-17T08:41:29.803Z,6.82
2022-08-17T08:46:51.373Z,8.75
2022-08-17T08:51:58.273Z,15.20
2022-08-17T08:57:37.575Z,10.82
2022-08-17T09:09:46.271Z,10.18
2022-08-17T09:15:03.854Z,11.93
2022-08-17T09:20:33.050Z,10.18
2022-08-17T09:25:50.525Z,8.52
2022-08-17T09:31:02.625Z,17.02
2022-08-17T09:36:27.398Z,7.37
2022-08-17T09:42:53.646Z,6.53
2022-08-17T09:48:18.438Z,11.63
2022-08-17T09:53:19.422Z,10.52
2022-08-17T09:59:39.676Z,11.85
2022-08-17T10:06:34.381Z,18.20
2022-08-17T10:12:34.938Z,13.27
2022-08-17T10:18:07.101Z,9.68
2022-08-17T10:23:34.522Z,9.40
2022-08-17T10:29:13.735Z,9.23
2022-08-17T10:35:15.861Z,13.73
2022-08-17T10:40:47.302Z,10.73
2022-08-17T10:46:10.510Z,9.82
2022-08-17T10:51:38.841Z,11.05
2022-08-17T10:56:47.388Z,8.05
2022-08-17T11:02:16.895Z,9.45
2022-08-17T11:07:37.859Z,8.18
2022-08-17T11:13:06.506Z,10.00
2022-08-17T11:18:28.326Z,11.02
2022-08-17T11:23:52.895Z,6.87
2022-08-17T11:28:59.553Z,14.48
2022-08-17T11:34:22.421Z,11.43
2022-08-17T11:40:04.762Z,8.02
2022-08-17T11:47:34.992Z,10.65
2022-08-17T11:52:40.422Z,9.68
2022-08-17T11:57:59.061Z,9.15
2022-08-17T12:04:03.021Z,11.32
2022-08-17T12:09:43.359Z,7.07
2022-08-17T12:15:12.465Z,9.88
2022-08-17T12:20:39.201Z,10.25
2022-08-17T12:26:12.117Z,9.10
2022-08-17T12:31:20.109Z,8.40
2022-08-17T12:36:27.515Z,7.97
2022-08-17T12:41:38.245Z,7.03
2022-08-17T12:48:31.337Z,6.72
2022-08-17T12:58:47.007Z,11.73
2022-08-17T13:03:51.603Z,4.82
2022-08-17T13:08:52.592Z,5.90
2022-08-17T13:13:55.838Z,8.27
2022-08-17T13:19:39.716Z,6.43
2022-08-17T13:24:52.676Z,5.43
2022-08-17T13:30:00.148Z,7.43
2022-08-17T13:35:29.589Z,6.37
2022-08-17T13:45:50.451Z,7.72
2022-08-17T13:51:12.971Z,8.65
2022-08-17T13:56:37.815Z,7.65
2022-08-17T14:01:47.504Z,8.60
2022-08-17T14:06:58.865Z,9.88
2022-08-17T14:12:01.540Z,6.43
2022-08-17T14:17:03.372Z,4.00
2022-08-17T14:22:08.279Z,4.87
2022-08-17T14:27:09.475Z,5.28
2022-08-17T14:33:11.190Z,5.35
2022-08-17T14:38:12.006Z,7.80
2022-08-17T14:43:15.116Z,5.00
2022-08-17T14:48:16.186Z,5.20
2022-08-17T14:53:17.176Z,5.57
2022-08-17T14:58:19.226Z,4.07
2022-08-17T15:03:20.027Z,6.07
2022-08-17T15:08:21.124Z,4.82
2022-08-17T15:13:24.781Z,5.12
2022-08-17T15:18:25.796Z,4.37
2022-08-17T15:23:26.827Z,4.53
2022-08-17T15:28:27.808Z,5.53
2022-08-17T15:33:29.635Z,5.82
2022-08-17T15:38:33.107Z,6.72
2022-08-17T15:43:35.775Z,3.67
2022-08-17T15:48:42.510Z,6.47
2022-08-17T15:53:48.480Z,3.78
2022-08-17T15:58:49.402Z,5.03
2022-08-17T16:04:04.732Z,4.00
2022-08-17T16:09:25.911Z,3.70
2022-08-17T16:14:32.464Z,5.25
2022-08-17T16:19:38.009Z,4.03
2022-08-17T16:24:47.357Z,3.95
2022-08-17T16:30:00.166Z,4.45
2022-08-17T16:35:06.862Z,4.30
2022-08-17T16:40:08.694Z,4.78
2022-08-17T16:45:16.214Z,5.12
2022-08-17T16:50:19.747Z,3.40
2022-08-17T16:55:23.217Z,4.43
2022-08-17T17:00:24.206Z,3.87
2022-08-17T17:06:39.869Z,3.33
2022-08-17T17:11:47.509Z,3.95
2022-08-17T17:17:12.783Z,5.40
2022-08-17T17:22:18.922Z,5.72
2022-08-17T17:30:45.884Z,4.05
2022-08-17T17:35:56.125Z,9.50
2022-08-17T17:41:05.345Z,5.85
2022-08-17T17:46:29.066Z,15.18
2022-08-17T17:52:07.798Z,6.12
2022-08-17T17:58:08.425Z,8.18
2022-08-17T18:03:29.182Z,6.05
2022-08-17T18:11:16.139Z,10.20
2022-08-17T18:16:28.806Z,6.25
2022-08-17T18:21:38.886Z,6.78
2022-08-17T18:26:44.947Z,7.37
2022-08-17T18:31:46.146Z,7.65
2022-08-17T18:36:47.059Z,6.53
2022-08-17T18:41:50.297Z,5.60
2022-08-17T18:47:14.822Z,5.62
2022-08-17T18:52:28.758Z,7.12
2022-08-17T18:57:39.037Z,7.53
2022-08-17T19:02:56.594Z,9.10
2022-08-17T19:08:34.147Z,4.90
2022-08-17T19:14:36.190Z,9.43
2022-08-17T19:19:52.115Z,13.07
2022-08-17T19:25:03.478Z,9.50
2022-08-17T19:30:11.755Z,17.70
2022-08-17T19:35:17.486Z,11.57
2022-08-17T19:40:52.800Z,12.65
2022-08-17T19:46:39.314Z,15.25
2022-08-17T19:51:57.434Z,10.68
2022-08-17T19:57:26.752Z,11.27
2022-08-17T20:02:55.497Z,12.05
2022-08-17T20:08:07.938Z,15.18
2022-08-17T20:13:14.623Z,15.68
2022-08-17T20:18:44.017Z,15.82
2022-08-17T20:24:13.544Z,13.10
2022-08-17T20:29:58.029Z,20.37
2022-08-17T20:35:38.170Z,13.88
2022-08-17T20:41:09.541Z,16.65
2022-08-17T20:46:32.232Z,20.50
2022-08-17T20:57:03.183Z,15.20
2022-08-17T21:02:20.029Z,16.92
2022-08-17T21:09:27.366Z,16.10
2022-08-17T21:14:42.701Z,15.45
2022-08-17T21:20:48.047Z,14.13
2022-08-17T21:26:50.286Z,15.93
2022-08-17T21:34:16.257Z,17.25
2022-08-17T21:39:24.023Z,13.43
2022-08-17T21:44:36.215Z,13.02
2022-08-17T21:49:37.775Z,16.23
2022-08-17T21:54:46.406Z,17.30
2022-08-17T22:00:00.097Z,17.62
2022-08-17T22:05:08.167Z,13.62
2022-08-17T22:10:39.815Z,14.55
2022-08-17T22:15:43.038Z,13.95
2022-08-17T22:20:49.674Z,15.23
2022-08-17T22:26:04.019Z,17.37
2022-08-17T22:31:08.465Z,14.48
2022-08-17T22:37:11.010Z,16.40
2022-08-17T22:42:14.223Z,16.83
2022-08-17T22:47:30.884Z,14.93
2022-08-17T22:59:19.662Z,17.15
2022-08-17T23:04:35.853Z,19.95
2022-08-17T23:09:37.433Z,20.55
2022-08-17T23:14:44.948Z,18.23
2022-08-17T23:19:45.954Z,19.50
2022-08-17T23:24:49.089Z,15.98
2022-08-17T23:29:49.961Z,27.10
2022-08-17T23:34:51.321Z,21.67
2022-08-17T23:39:52.196Z,19.92
2022-08-17T23:44:53.177Z,20.35
2022-08-17T23:49:54.286Z,20.02
2022-08-17T23:54:56.711Z,19.95
2022-08-17T23:59:57.548Z,23.12
